Etusivu
METAR-TAF:

METAR-TAF

Lentoasemat :

Carson City, Nevada, Yhdysvallat

Leveyspiiri: 39-11-32N, Pituuspiiri: 119-44-04W, korkeus merenpinnasta: 1432 m

Tämänhetkinen sää

Tämä raportti tehtiin 33 minuuttia sitten, kello 17.55 UTC
tyyntä
Lämpötila 6°C
Kosteus 26%
Ilmanpaine 1031 hPa
Näkyvyys: 16.1 km
selkeää

METAR: KCXP 261755Z AUTO 00000KT 10SM CLR 06/M12 A3045 RMK AO2

Aika: 10:28 (18:28 UTC)

Sääennuste

Tämä raportti tehtiin 56 minuuttia sitten, kello 17.32 UTC
Ennuste voimassa 26. päivästä klo 18 UTC - 27. päivään klo 18 UTC
Tuuli 3 kn eri suunnista
Näkyvyys: 10 km
Muutamia pilviä 18000 ft:n korkeudessa
Hajanaisia pilviä 25000 ft:n korkeudessa
From 26. päivästä klo 2100 UTC
Tuuli 8 kn lännestä puuskistuen 16 kn:hen
Näkyvyys: 10 km
Muutamia pilviä 20000 ft:n korkeudessa
From 27. päivästä klo 0300 UTC
Tuuli 3 kn eri suunnista
Näkyvyys: 10 km
selkeää

TAF: KCXP 261732Z 2618/2718 VRB03KT P6SM FEW180 SCT250 FM262100 28008G16KT P6SM FEW200 FM270300 VRB03KT P6SM SKC

Säähavainnot ja -ennusteet yli 4000 lentoasemalta (METAR- ja TAF-raportit).

Käytössä olevat sääasemat on merkitty karttaan keltaisilla ja punaisilla pisteillä.

Aseta hiiri pisteen päälle nähdäksesi sääaseman nimen.

Klikkaa sitten nähdäksesi säähavainnot ja -ennusteet.

Kartan vaihtaminen: klikkaa mustalla rastilla varustettuja vihreitä pisteitä, niin voit zoomata sisään; viivalla varustettua vihreää pistettä, niin voit zoomata ulos tai vihreitä nuolia, niin pääset viereisille kartoille.


METAR-TAF: